sensor_id;sensor_type;location;lat;lon;timestamp;P1;durP1;ratioP1;P2;durP2;ratioP2
48534;SDS011;34323;52.022;5.686;2023-07-30T00:01:54;18.77;;;3.17;;
48534;SDS011;34323;52.022;5.686;2023-07-30T00:04:20;15.32;;;3.55;;
48534;SDS011;34323;52.022;5.686;2023-07-30T00:06:46;8.20;;;2.75;;
48534;SDS011;34323;52.022;5.686;2023-07-30T00:09:11;9.27;;;3.28;;
48534;SDS011;34323;52.022;5.686;2023-07-30T00:11:37;8.27;;;2.70;;
48534;SDS011;34323;52.022;5.686;2023-07-30T00:14:02;4.57;;;2.80;;
48534;SDS011;34323;52.022;5.686;2023-07-30T00:16:28;10.80;;;2.67;;
48534;SDS011;34323;52.022;5.686;2023-07-30T00:18:54;10.43;;;3.00;;
48534;SDS011;34323;52.022;5.686;2023-07-30T00:21:19;6.50;;;2.40;;
48534;SDS011;34323;52.022;5.686;2023-07-30T00:23:45;8.85;;;2.90;;
48534;SDS011;34323;52.022;5.686;2023-07-30T00:26:11;10.00;;;2.78;;
48534;SDS011;34323;52.022;5.686;2023-07-30T00:28:36;8.55;;;3.15;;
48534;SDS011;34323;52.022;5.686;2023-07-30T00:31:02;11.70;;;2.55;;
48534;SDS011;34323;52.022;5.686;2023-07-30T00:33:28;13.13;;;2.38;;
48534;SDS011;34323;52.022;5.686;2023-07-30T00:35:53;6.32;;;2.35;;
48534;SDS011;34323;52.022;5.686;2023-07-30T00:38:19;4.60;;;2.28;;
48534;SDS011;34323;52.022;5.686;2023-07-30T00:40:45;7.78;;;2.50;;
48534;SDS011;34323;52.022;5.686;2023-07-30T00:43:10;7.05;;;2.20;;
48534;SDS011;34323;52.022;5.686;2023-07-30T00:45:36;5.07;;;2.55;;
48534;SDS011;34323;52.022;5.686;2023-07-30T00:48:05;15.75;;;3.30;;
48534;SDS011;34323;52.022;5.686;2023-07-30T00:50:31;13.85;;;3.13;;
48534;SDS011;34323;52.022;5.686;2023-07-30T00:52:57;6.72;;;2.30;;
48534;SDS011;34323;52.022;5.686;2023-07-30T00:55:23;15.02;;;2.63;;
48534;SDS011;34323;52.022;5.686;2023-07-30T00:57:49;7.60;;;2.20;;
48534;SDS011;34323;52.022;5.686;2023-07-30T01:00:15;9.52;;;2.20;;
48534;SDS011;34323;52.022;5.686;2023-07-30T01:02:41;9.65;;;2.78;;
48534;SDS011;34323;52.022;5.686;2023-07-30T01:05:06;8.82;;;3.08;;
48534;SDS011;34323;52.022;5.686;2023-07-30T01:07:32;8.38;;;1.90;;
48534;SDS011;34323;52.022;5.686;2023-07-30T01:09:58;9.00;;;2.53;;
48534;SDS011;34323;52.022;5.686;2023-07-30T01:12:25;11.98;;;2.53;;
48534;SDS011;34323;52.022;5.686;2023-07-30T01:14:51;12.98;;;2.65;;
48534;SDS011;34323;52.022;5.686;2023-07-30T01:17:18;5.40;;;2.20;;
48534;SDS011;34323;52.022;5.686;2023-07-30T01:19:43;8.02;;;1.80;;
48534;SDS011;34323;52.022;5.686;2023-07-30T01:22:09;6.68;;;2.00;;
48534;SDS011;34323;52.022;5.686;2023-07-30T01:24:35;10.23;;;3.03;;
48534;SDS011;34323;52.022;5.686;2023-07-30T01:27:01;6.60;;;2.60;;
48534;SDS011;34323;52.022;5.686;2023-07-30T01:29:35;11.48;;;2.28;;
48534;SDS011;34323;52.022;5.686;2023-07-30T01:32:07;9.25;;;2.10;;
48534;SDS011;34323;52.022;5.686;2023-07-30T01:34:35;6.35;;;2.00;;
48534;SDS011;34323;52.022;5.686;2023-07-30T01:37:02;4.85;;;2.40;;
48534;SDS011;34323;52.022;5.686;2023-07-30T01:39:30;4.80;;;2.45;;
48534;SDS011;34323;52.022;5.686;2023-07-30T01:41:57;12.43;;;3.13;;
48534;SDS011;34323;52.022;5.686;2023-07-30T01:44:22;6.82;;;2.42;;
48534;SDS011;34323;52.022;5.686;2023-07-30T01:46:48;6.90;;;2.28;;
48534;SDS011;34323;52.022;5.686;2023-07-30T01:49:13;5.60;;;2.45;;
48534;SDS011;34323;52.022;5.686;2023-07-30T01:51:39;7.65;;;2.35;;
48534;SDS011;34323;52.022;5.686;2023-07-30T01:54:04;4.03;;;2.25;;
48534;SDS011;34323;52.022;5.686;2023-07-30T01:56:30;11.15;;;2.60;;
48534;SDS011;34323;52.022;5.686;2023-07-30T01:58:55;7.63;;;2.60;;
48534;SDS011;34323;52.022;5.686;2023-07-30T02:01:21;8.90;;;2.17;;
48534;SDS011;34323;52.022;5.686;2023-07-30T02:03:47;11.95;;;2.38;;
48534;SDS011;34323;52.022;5.686;2023-07-30T02:06:12;6.38;;;2.53;;
48534;SDS011;34323;52.022;5.686;2023-07-30T02:08:38;10.23;;;2.30;;
48534;SDS011;34323;52.022;5.686;2023-07-30T02:11:03;12.35;;;2.40;;
48534;SDS011;34323;52.022;5.686;2023-07-30T02:13:29;10.88;;;2.40;;
48534;SDS011;34323;52.022;5.686;2023-07-30T02:15:54;12.45;;;3.17;;
48534;SDS011;34323;52.022;5.686;2023-07-30T02:18:20;11.15;;;2.90;;
48534;SDS011;34323;52.022;5.686;2023-07-30T02:20:45;6.28;;;2.42;;
48534;SDS011;34323;52.022;5.686;2023-07-30T02:23:11;7.88;;;2.25;;
48534;SDS011;34323;52.022;5.686;2023-07-30T02:25:38;7.82;;;2.58;;
48534;SDS011;34323;52.022;5.686;2023-07-30T02:28:04;9.98;;;2.30;;
48534;SDS011;34323;52.022;5.686;2023-07-30T02:30:29;12.45;;;3.17;;
48534;SDS011;34323;52.022;5.686;2023-07-30T02:32:55;6.78;;;2.33;;
48534;SDS011;34323;52.022;5.686;2023-07-30T02:35:20;8.50;;;2.42;;
48534;SDS011;34323;52.022;5.686;2023-07-30T02:37:46;10.75;;;2.70;;
48534;SDS011;34323;52.022;5.686;2023-07-30T02:40:11;9.23;;;3.08;;
48534;SDS011;34323;52.022;5.686;2023-07-30T02:42:37;8.85;;;2.95;;
48534;SDS011;34323;52.022;5.686;2023-07-30T02:45:03;11.27;;;3.25;;
48534;SDS011;34323;52.022;5.686;2023-07-30T02:47:29;7.95;;;2.83;;
48534;SDS011;34323;52.022;5.686;2023-07-30T02:49:54;16.38;;;2.75;;
48534;SDS011;34323;52.022;5.686;2023-07-30T02:52:20;7.53;;;2.75;;
48534;SDS011;34323;52.022;5.686;2023-07-30T02:54:45;10.65;;;3.35;;
48534;SDS011;34323;52.022;5.686;2023-07-30T02:57:11;14.63;;;3.40;;
48534;SDS011;34323;52.022;5.686;2023-07-30T02:59:38;10.77;;;3.50;;
48534;SDS011;34323;52.022;5.686;2023-07-30T03:02:04;11.80;;;3.83;;
48534;SDS011;34323;52.022;5.686;2023-07-30T03:04:30;18.67;;;3.55;;
48534;SDS011;34323;52.022;5.686;2023-07-30T03:06:56;17.52;;;3.55;;
48534;SDS011;34323;52.022;5.686;2023-07-30T03:09:22;11.18;;;3.45;;
48534;SDS011;34323;52.022;5.686;2023-07-30T03:11:48;15.30;;;3.20;;
48534;SDS011;34323;52.022;5.686;2023-07-30T03:14:15;11.80;;;3.17;;
48534;SDS011;34323;52.022;5.686;2023-07-30T03:16:40;14.95;;;3.45;;
48534;SDS011;34323;52.022;5.686;2023-07-30T03:19:06;12.45;;;4.53;;
48534;SDS011;34323;52.022;5.686;2023-07-30T03:21:31;14.20;;;3.65;;
48534;SDS011;34323;52.022;5.686;2023-07-30T03:23:57;12.75;;;3.70;;
48534;SDS011;34323;52.022;5.686;2023-07-30T03:26:22;15.00;;;4.50;;
48534;SDS011;34323;52.022;5.686;2023-07-30T03:28:48;16.33;;;4.63;;
48534;SDS011;34323;52.022;5.686;2023-07-30T03:31:14;10.23;;;3.53;;
48534;SDS011;34323;52.022;5.686;2023-07-30T03:33:39;25.23;;;4.50;;
48534;SDS011;34323;52.022;5.686;2023-07-30T03:36:08;12.52;;;3.67;;
48534;SDS011;34323;52.022;5.686;2023-07-30T03:38:41;17.13;;;5.83;;
48534;SDS011;34323;52.022;5.686;2023-07-30T03:41:07;17.83;;;5.60;;
48534;SDS011;34323;52.022;5.686;2023-07-30T03:43:33;20.08;;;4.85;;
48534;SDS011;34323;52.022;5.686;2023-07-30T03:45:59;11.27;;;4.45;;
48534;SDS011;34323;52.022;5.686;2023-07-30T03:48:25;19.08;;;4.93;;
48534;SDS011;34323;52.022;5.686;2023-07-30T03:50:52;23.50;;;5.53;;
48534;SDS011;34323;52.022;5.686;2023-07-30T03:53:20;19.88;;;5.68;;
48534;SDS011;34323;52.022;5.686;2023-07-30T03:55:46;20.10;;;5.40;;
48534;SDS011;34323;52.022;5.686;2023-07-30T03:58:12;14.63;;;5.35;;
48534;SDS011;34323;52.022;5.686;2023-07-30T04:00:38;15.63;;;5.25;;
48534;SDS011;34323;52.022;5.686;2023-07-30T04:03:03;19.77;;;6.00;;
48534;SDS011;34323;52.022;5.686;2023-07-30T04:05:29;17.42;;;5.85;;
48534;SDS011;34323;52.022;5.686;2023-07-30T04:07:55;19.67;;;5.47;;
48534;SDS011;34323;52.022;5.686;2023-07-30T04:10:21;20.20;;;5.25;;
48534;SDS011;34323;52.022;5.686;2023-07-30T04:12:47;23.15;;;6.07;;
48534;SDS011;34323;52.022;5.686;2023-07-30T04:15:12;14.65;;;5.68;;
48534;SDS011;34323;52.022;5.686;2023-07-30T04:17:39;14.68;;;5.50;;
48534;SDS011;34323;52.022;5.686;2023-07-30T04:20:05;24.90;;;6.50;;
48534;SDS011;34323;52.022;5.686;2023-07-30T04:22:31;15.55;;;6.05;;
48534;SDS011;34323;52.022;5.686;2023-07-30T04:24:56;16.95;;;5.97;;
48534;SDS011;34323;52.022;5.686;2023-07-30T04:27:22;34.53;;;7.10;;
48534;SDS011;34323;52.022;5.686;2023-07-30T04:29:47;25.70;;;6.13;;
48534;SDS011;34323;52.022;5.686;2023-07-30T04:32:13;24.25;;;7.22;;
48534;SDS011;34323;52.022;5.686;2023-07-30T04:34:39;24.50;;;7.00;;
48534;SDS011;34323;52.022;5.686;2023-07-30T04:37:05;23.17;;;6.55;;
48534;SDS011;34323;52.022;5.686;2023-07-30T04:39:34;19.13;;;6.40;;
48534;SDS011;34323;52.022;5.686;2023-07-30T04:42:00;22.88;;;6.63;;
48534;SDS011;34323;52.022;5.686;2023-07-30T04:44:26;23.40;;;6.60;;
48534;SDS011;34323;52.022;5.686;2023-07-30T04:46:52;23.02;;;6.82;;
48534;SDS011;34323;52.022;5.686;2023-07-30T04:49:17;24.27;;;8.30;;
48534;SDS011;34323;52.022;5.686;2023-07-30T04:51:43;24.20;;;7.85;;
48534;SDS011;34323;52.022;5.686;2023-07-30T04:54:08;25.45;;;7.78;;
48534;SDS011;34323;52.022;5.686;2023-07-30T04:56:34;21.05;;;7.00;;
48534;SDS011;34323;52.022;5.686;2023-07-30T04:59:00;29.40;;;8.45;;
48534;SDS011;34323;52.022;5.686;2023-07-30T05:01:26;27.85;;;7.18;;
48534;SDS011;34323;52.022;5.686;2023-07-30T05:03:52;28.33;;;8.32;;
48534;SDS011;34323;52.022;5.686;2023-07-30T05:06:17;28.77;;;7.38;;
48534;SDS011;34323;52.022;5.686;2023-07-30T05:08:43;26.13;;;7.50;;
48534;SDS011;34323;52.022;5.686;2023-07-30T05:11:09;26.63;;;7.32;;
48534;SDS011;34323;52.022;5.686;2023-07-30T05:13:34;29.17;;;7.32;;
48534;SDS011;34323;52.022;5.686;2023-07-30T05:16:00;25.55;;;7.88;;
48534;SDS011;34323;52.022;5.686;2023-07-30T05:18:26;23.77;;;7.38;;
48534;SDS011;34323;52.022;5.686;2023-07-30T05:20:52;32.28;;;8.10;;
48534;SDS011;34323;52.022;5.686;2023-07-30T05:23:18;37.20;;;7.85;;
48534;SDS011;34323;52.022;5.686;2023-07-30T05:25:44;25.88;;;8.00;;
48534;SDS011;34323;52.022;5.686;2023-07-30T05:28:09;26.25;;;6.93;;
48534;SDS011;34323;52.022;5.686;2023-07-30T05:30:35;27.65;;;7.57;;
48534;SDS011;34323;52.022;5.686;2023-07-30T05:33:00;24.40;;;7.32;;
48534;SDS011;34323;52.022;5.686;2023-07-30T05:35:26;32.88;;;8.90;;
48534;SDS011;34323;52.022;5.686;2023-07-30T05:37:51;28.13;;;8.13;;
48534;SDS011;34323;52.022;5.686;2023-07-30T05:40:17;20.42;;;8.35;;
48534;SDS011;34323;52.022;5.686;2023-07-30T05:42:42;33.47;;;9.98;;
48534;SDS011;34323;52.022;5.686;2023-07-30T05:45:08;33.08;;;9.82;;
48534;SDS011;34323;52.022;5.686;2023-07-30T05:47:34;22.95;;;8.65;;
48534;SDS011;34323;52.022;5.686;2023-07-30T05:50:00;28.30;;;9.73;;
48534;SDS011;34323;52.022;5.686;2023-07-30T05:52:26;29.55;;;9.82;;
48534;SDS011;34323;52.022;5.686;2023-07-30T05:54:51;29.33;;;9.73;;
48534;SDS011;34323;52.022;5.686;2023-07-30T05:57:17;25.05;;;9.48;;
48534;SDS011;34323;52.022;5.686;2023-07-30T05:59:42;27.38;;;10.02;;
48534;SDS011;34323;52.022;5.686;2023-07-30T06:02:08;26.13;;;10.35;;
48534;SDS011;34323;52.022;5.686;2023-07-30T06:04:33;32.92;;;11.35;;
48534;SDS011;34323;52.022;5.686;2023-07-30T06:06:59;30.80;;;10.07;;
48534;SDS011;34323;52.022;5.686;2023-07-30T06:09:27;27.70;;;10.20;;
48534;SDS011;34323;52.022;5.686;2023-07-30T06:11:53;26.65;;;10.18;;
48534;SDS011;34323;52.022;5.686;2023-07-30T06:14:20;32.33;;;11.38;;
48534;SDS011;34323;52.022;5.686;2023-07-30T06:16:45;29.55;;;11.10;;
48534;SDS011;34323;52.022;5.686;2023-07-30T06:19:11;28.33;;;10.30;;
48534;SDS011;34323;52.022;5.686;2023-07-30T06:21:36;33.05;;;11.10;;
48534;SDS011;34323;52.022;5.686;2023-07-30T06:24:02;27.70;;;10.38;;
48534;SDS011;34323;52.022;5.686;2023-07-30T06:26:28;26.63;;;9.70;;
48534;SDS011;34323;52.022;5.686;2023-07-30T06:28:53;26.92;;;9.82;;
48534;SDS011;34323;52.022;5.686;2023-07-30T06:31:19;32.25;;;11.45;;
48534;SDS011;34323;52.022;5.686;2023-07-30T06:33:44;33.70;;;10.20;;
48534;SDS011;34323;52.022;5.686;2023-07-30T06:36:10;27.50;;;9.43;;
48534;SDS011;34323;52.022;5.686;2023-07-30T06:38:35;26.63;;;9.90;;
48534;SDS011;34323;52.022;5.686;2023-07-30T06:41:01;25.10;;;9.63;;
48534;SDS011;34323;52.022;5.686;2023-07-30T06:43:26;34.72;;;9.82;;
48534;SDS011;34323;52.022;5.686;2023-07-30T06:45:53;33.58;;;10.98;;
48534;SDS011;34323;52.022;5.686;2023-07-30T06:48:19;25.58;;;10.45;;
48534;SDS011;34323;52.022;5.686;2023-07-30T06:50:45;31.25;;;10.57;;
48534;SDS011;34323;52.022;5.686;2023-07-30T06:53:10;29.67;;;9.75;;
48534;SDS011;34323;52.022;5.686;2023-07-30T06:55:36;32.78;;;10.73;;
48534;SDS011;34323;52.022;5.686;2023-07-30T06:58:01;24.35;;;8.43;;
48534;SDS011;34323;52.022;5.686;2023-07-30T07:00:27;25.05;;;8.75;;
48534;SDS011;34323;52.022;5.686;2023-07-30T07:02:52;20.75;;;9.00;;
48534;SDS011;34323;52.022;5.686;2023-07-30T07:05:19;29.02;;;8.93;;
48534;SDS011;34323;52.022;5.686;2023-07-30T07:07:44;27.33;;;9.32;;
48534;SDS011;34323;52.022;5.686;2023-07-30T07:10:10;26.17;;;9.60;;
48534;SDS011;34323;52.022;5.686;2023-07-30T07:12:36;28.27;;;9.27;;
48534;SDS011;34323;52.022;5.686;2023-07-30T07:15:03;28.77;;;9.75;;
48534;SDS011;34323;52.022;5.686;2023-07-30T07:17:29;24.23;;;8.90;;
48534;SDS011;34323;52.022;5.686;2023-07-30T07:19:54;29.40;;;9.90;;
48534;SDS011;34323;52.022;5.686;2023-07-30T07:22:20;33.33;;;9.35;;
48534;SDS011;34323;52.022;5.686;2023-07-30T07:24:46;21.52;;;10.45;;
48534;SDS011;34323;52.022;5.686;2023-07-30T07:27:11;27.40;;;9.70;;
48534;SDS011;34323;52.022;5.686;2023-07-30T07:29:37;31.55;;;10.00;;
48534;SDS011;34323;52.022;5.686;2023-07-30T07:32:02;28.98;;;8.68;;
48534;SDS011;34323;52.022;5.686;2023-07-30T07:34:28;31.88;;;8.88;;
48534;SDS011;34323;52.022;5.686;2023-07-30T07:36:54;24.85;;;9.48;;
48534;SDS011;34323;52.022;5.686;2023-07-30T07:39:20;35.03;;;9.88;;
48534;SDS011;34323;52.022;5.686;2023-07-30T07:41:45;18.65;;;7.78;;
48534;SDS011;34323;52.022;5.686;2023-07-30T07:44:11;22.02;;;8.32;;
48534;SDS011;34323;52.022;5.686;2023-07-30T07:46:36;26.38;;;8.05;;
48534;SDS011;34323;52.022;5.686;2023-07-30T07:49:02;22.50;;;8.00;;
48534;SDS011;34323;52.022;5.686;2023-07-30T07:51:27;31.10;;;8.75;;
48534;SDS011;34323;52.022;5.686;2023-07-30T07:53:53;17.33;;;6.45;;
48534;SDS011;34323;52.022;5.686;2023-07-30T07:56:19;20.58;;;6.50;;
48534;SDS011;34323;52.022;5.686;2023-07-30T07:58:44;19.63;;;6.00;;
48534;SDS011;34323;52.022;5.686;2023-07-30T08:01:10;26.98;;;6.07;;
48534;SDS011;34323;52.022;5.686;2023-07-30T08:03:35;27.58;;;7.15;;
48534;SDS011;34323;52.022;5.686;2023-07-30T08:06:01;22.85;;;6.22;;
48534;SDS011;34323;52.022;5.686;2023-07-30T08:08:26;26.77;;;6.30;;
48534;SDS011;34323;52.022;5.686;2023-07-30T08:10:52;23.50;;;5.93;;
48534;SDS011;34323;52.022;5.686;2023-07-30T08:13:18;19.63;;;6.05;;
48534;SDS011;34323;52.022;5.686;2023-07-30T08:15:43;17.42;;;5.72;;
48534;SDS011;34323;52.022;5.686;2023-07-30T08:18:09;26.42;;;5.85;;
48534;SDS011;34323;52.022;5.686;2023-07-30T08:20:35;17.70;;;5.35;;
48534;SDS011;34323;52.022;5.686;2023-07-30T08:23:01;28.98;;;5.32;;
48534;SDS011;34323;52.022;5.686;2023-07-30T08:25:27;21.60;;;5.93;;
48534;SDS011;34323;52.022;5.686;2023-07-30T08:27:52;23.13;;;5.88;;
48534;SDS011;34323;52.022;5.686;2023-07-30T08:30:18;20.02;;;5.50;;
48534;SDS011;34323;52.022;5.686;2023-07-30T08:32:43;19.08;;;6.38;;
48534;SDS011;34323;52.022;5.686;2023-07-30T08:35:09;15.30;;;5.95;;
48534;SDS011;34323;52.022;5.686;2023-07-30T08:37:35;18.15;;;5.20;;
48534;SDS011;34323;52.022;5.686;2023-07-30T08:40:01;17.00;;;5.65;;
48534;SDS011;34323;52.022;5.686;2023-07-30T08:42:27;21.05;;;5.30;;
48534;SDS011;34323;52.022;5.686;2023-07-30T08:44:53;19.67;;;5.13;;
48534;SDS011;34323;52.022;5.686;2023-07-30T08:47:18;17.45;;;5.35;;
48534;SDS011;34323;52.022;5.686;2023-07-30T08:49:44;14.98;;;4.85;;
48534;SDS011;34323;52.022;5.686;2023-07-30T08:52:10;22.65;;;5.80;;
48534;SDS011;34323;52.022;5.686;2023-07-30T08:54:37;21.65;;;5.43;;
48534;SDS011;34323;52.022;5.686;2023-07-30T08:57:04;20.55;;;5.25;;
48534;SDS011;34323;52.022;5.686;2023-07-30T08:59:31;27.80;;;4.82;;
48534;SDS011;34323;52.022;5.686;2023-07-30T09:02:02;16.80;;;4.47;;
48534;SDS011;34323;52.022;5.686;2023-07-30T09:04:32;11.38;;;4.38;;
48534;SDS011;34323;52.022;5.686;2023-07-30T09:07:17;14.07;;;4.68;;
48534;SDS011;34323;52.022;5.686;2023-07-30T09:09:43;15.45;;;4.32;;
48534;SDS011;34323;52.022;5.686;2023-07-30T09:12:13;14.05;;;4.10;;
48534;SDS011;34323;52.022;5.686;2023-07-30T09:14:39;16.83;;;3.47;;
48534;SDS011;34323;52.022;5.686;2023-07-30T09:17:05;14.02;;;4.07;;
48534;SDS011;34323;52.022;5.686;2023-07-30T09:19:34;16.77;;;4.15;;
48534;SDS011;34323;52.022;5.686;2023-07-30T09:22:03;14.80;;;3.40;;
48534;SDS011;34323;52.022;5.686;2023-07-30T09:24:30;15.82;;;3.92;;
48534;SDS011;34323;52.022;5.686;2023-07-30T09:26:55;18.40;;;3.13;;
48534;SDS011;34323;52.022;5.686;2023-07-30T09:29:26;14.90;;;3.53;;
48534;SDS011;34323;52.022;5.686;2023-07-30T09:31:52;14.13;;;3.25;;
48534;SDS011;34323;52.022;5.686;2023-07-30T09:34:19;11.10;;;3.28;;
48534;SDS011;34323;52.022;5.686;2023-07-30T09:36:46;14.70;;;3.08;;
48534;SDS011;34323;52.022;5.686;2023-07-30T09:39:25;19.50;;;2.88;;
48534;SDS011;34323;52.022;5.686;2023-07-30T09:41:52;15.77;;;4.40;;
48534;SDS011;34323;52.022;5.686;2023-07-30T09:44:23;14.25;;;3.88;;
48534;SDS011;34323;52.022;5.686;2023-07-30T09:46:49;19.33;;;3.25;;
48534;SDS011;34323;52.022;5.686;2023-07-30T09:49:15;13.18;;;3.65;;
48534;SDS011;34323;52.022;5.686;2023-07-30T09:51:42;11.48;;;2.63;;
48534;SDS011;34323;52.022;5.686;2023-07-30T09:54:08;13.32;;;3.05;;
48534;SDS011;34323;52.022;5.686;2023-07-30T09:56:37;9.43;;;2.10;;
48534;SDS011;34323;52.022;5.686;2023-07-30T09:59:04;12.45;;;2.28;;
48534;SDS011;34323;52.022;5.686;2023-07-30T10:01:31;5.68;;;2.05;;
48534;SDS011;34323;52.022;5.686;2023-07-30T10:04:00;10.23;;;2.38;;
48534;SDS011;34323;52.022;5.686;2023-07-30T10:06:30;8.90;;;1.88;;
48534;SDS011;34323;52.022;5.686;2023-07-30T10:08:57;12.50;;;2.42;;
48534;SDS011;34323;52.022;5.686;2023-07-30T10:11:24;11.00;;;2.20;;
48534;SDS011;34323;52.022;5.686;2023-07-30T10:13:51;9.18;;;2.40;;
48534;SDS011;34323;52.022;5.686;2023-07-30T10:16:18;12.48;;;3.03;;
48534;SDS011;34323;52.022;5.686;2023-07-30T10:18:43;10.45;;;2.85;;
48534;SDS011;34323;52.022;5.686;2023-07-30T10:21:09;13.18;;;2.90;;
48534;SDS011;34323;52.022;5.686;2023-07-30T10:23:46;13.80;;;2.78;;
48534;SDS011;34323;52.022;5.686;2023-07-30T10:26:26;8.30;;;2.60;;
48534;SDS011;34323;52.022;5.686;2023-07-30T10:31:41;13.30;;;2.53;;
48534;SDS011;34323;52.022;5.686;2023-07-30T10:34:09;15.27;;;2.60;;
48534;SDS011;34323;52.022;5.686;2023-07-30T10:36:51;10.93;;;2.53;;
48534;SDS011;34323;52.022;5.686;2023-07-30T10:39:20;9.63;;;2.08;;
48534;SDS011;34323;52.022;5.686;2023-07-30T10:41:56;8.35;;;2.13;;
48534;SDS011;34323;52.022;5.686;2023-07-30T10:44:26;12.40;;;2.65;;
48534;SDS011;34323;52.022;5.686;2023-07-30T10:46:54;14.60;;;2.40;;
48534;SDS011;34323;52.022;5.686;2023-07-30T10:49:20;8.07;;;2.42;;
48534;SDS011;34323;52.022;5.686;2023-07-30T10:51:46;10.02;;;1.88;;
48534;SDS011;34323;52.022;5.686;2023-07-30T10:54:11;7.20;;;2.17;;
48534;SDS011;34323;52.022;5.686;2023-07-30T10:56:37;10.75;;;1.90;;
48534;SDS011;34323;52.022;5.686;2023-07-30T10:59:04;11.30;;;2.08;;
48534;SDS011;34323;52.022;5.686;2023-07-30T11:01:31;12.30;;;2.08;;
48534;SDS011;34323;52.022;5.686;2023-07-30T11:03:56;8.68;;;1.67;;
48534;SDS011;34323;52.022;5.686;2023-07-30T11:06:23;12.60;;;2.40;;
48534;SDS011;34323;52.022;5.686;2023-07-30T11:08:49;7.60;;;2.13;;
48534;SDS011;34323;52.022;5.686;2023-07-30T11:11:14;10.32;;;2.60;;
48534;SDS011;34323;52.022;5.686;2023-07-30T11:13:41;11.50;;;2.63;;
48534;SDS011;34323;52.022;5.686;2023-07-30T11:16:09;12.45;;;2.17;;
48534;SDS011;34323;52.022;5.686;2023-07-30T11:18:35;7.07;;;1.88;;
48534;SDS011;34323;52.022;5.686;2023-07-30T11:21:12;13.00;;;2.08;;
48534;SDS011;34323;52.022;5.686;2023-07-30T11:23:42;9.25;;;1.58;;
48534;SDS011;34323;52.022;5.686;2023-07-30T11:26:09;10.02;;;1.77;;
48534;SDS011;34323;52.022;5.686;2023-07-30T11:28:39;9.77;;;2.47;;
48534;SDS011;34323;52.022;5.686;2023-07-30T11:31:06;9.88;;;2.28;;
48534;SDS011;34323;52.022;5.686;2023-07-30T11:33:33;10.23;;;1.65;;
48534;SDS011;34323;52.022;5.686;2023-07-30T11:36:01;6.78;;;1.50;;
48534;SDS011;34323;52.022;5.686;2023-07-30T11:38:28;7.05;;;1.52;;
48534;SDS011;34323;52.022;5.686;2023-07-30T11:40:55;7.05;;;1.30;;
48534;SDS011;34323;52.022;5.686;2023-07-30T11:43:21;9.10;;;2.00;;
48534;SDS011;34323;52.022;5.686;2023-07-30T11:45:48;6.50;;;2.00;;
48534;SDS011;34323;52.022;5.686;2023-07-30T11:48:14;6.30;;;1.23;;
48534;SDS011;34323;52.022;5.686;2023-07-30T11:50:52;4.47;;;1.40;;
48534;SDS011;34323;52.022;5.686;2023-07-30T11:53:18;4.45;;;1.30;;
48534;SDS011;34323;52.022;5.686;2023-07-30T11:55:44;3.42;;;1.30;;
48534;SDS011;34323;52.022;5.686;2023-07-30T11:58:10;8.00;;;1.27;;
48534;SDS011;34323;52.022;5.686;2023-07-30T12:00:38;6.43;;;1.15;;
48534;SDS011;34323;52.022;5.686;2023-07-30T12:03:05;6.57;;;1.25;;
48534;SDS011;34323;52.022;5.686;2023-07-30T12:05:38;4.47;;;1.58;;
48534;SDS011;34323;52.022;5.686;2023-07-30T12:08:12;15.13;;;1.80;;
48534;SDS011;34323;52.022;5.686;2023-07-30T12:10:44;7.38;;;1.58;;
48534;SDS011;34323;52.022;5.686;2023-07-30T12:13:14;7.60;;;1.83;;
48534;SDS011;34323;52.022;5.686;2023-07-30T12:15:42;13.02;;;1.00;;
48534;SDS011;34323;52.022;5.686;2023-07-30T12:18:18;9.10;;;1.48;;
48534;SDS011;34323;52.022;5.686;2023-07-30T12:20:44;5.95;;;1.77;;
48534;SDS011;34323;52.022;5.686;2023-07-30T12:23:10;3.97;;;1.05;;
48534;SDS011;34323;52.022;5.686;2023-07-30T12:25:35;6.60;;;2.10;;
48534;SDS011;34323;52.022;5.686;2023-07-30T12:28:02;5.13;;;1.05;;
48534;SDS011;34323;52.022;5.686;2023-07-30T12:30:27;6.78;;;1.10;;
48534;SDS011;34323;52.022;5.686;2023-07-30T12:32:53;4.13;;;1.23;;
48534;SDS011;34323;52.022;5.686;2023-07-30T12:35:19;9.88;;;1.42;;
48534;SDS011;34323;52.022;5.686;2023-07-30T12:37:45;5.75;;;1.20;;
48534;SDS011;34323;52.022;5.686;2023-07-30T12:40:11;9.95;;;1.30;;
48534;SDS011;34323;52.022;5.686;2023-07-30T12:42:36;5.40;;;1.23;;
48534;SDS011;34323;52.022;5.686;2023-07-30T12:45:02;6.25;;;1.45;;
48534;SDS011;34323;52.022;5.686;2023-07-30T12:47:28;5.47;;;1.35;;
48534;SDS011;34323;52.022;5.686;2023-07-30T12:49:53;7.65;;;1.10;;
48534;SDS011;34323;52.022;5.686;2023-07-30T12:52:19;8.80;;;1.45;;
48534;SDS011;34323;52.022;5.686;2023-07-30T12:54:44;7.50;;;1.17;;
48534;SDS011;34323;52.022;5.686;2023-07-30T12:57:10;5.30;;;1.10;;
48534;SDS011;34323;52.022;5.686;2023-07-30T12:59:35;3.90;;;1.00;;
48534;SDS011;34323;52.022;5.686;2023-07-30T13:02:01;4.18;;;1.33;;
48534;SDS011;34323;52.022;5.686;2023-07-30T13:04:27;5.47;;;1.23;;
48534;SDS011;34323;52.022;5.686;2023-07-30T13:06:53;5.75;;;1.17;;
48534;SDS011;34323;52.022;5.686;2023-07-30T13:09:19;4.38;;;1.15;;
48534;SDS011;34323;52.022;5.686;2023-07-30T13:11:44;7.13;;;0.82;;
48534;SDS011;34323;52.022;5.686;2023-07-30T13:14:10;2.85;;;0.93;;
48534;SDS011;34323;52.022;5.686;2023-07-30T13:16:36;6.32;;;1.80;;
48534;SDS011;34323;52.022;5.686;2023-07-30T13:19:01;3.42;;;1.00;;
48534;SDS011;34323;52.022;5.686;2023-07-30T13:21:27;3.25;;;0.88;;
48534;SDS011;34323;52.022;5.686;2023-07-30T13:23:52;5.30;;;1.08;;
48534;SDS011;34323;52.022;5.686;2023-07-30T13:26:18;3.97;;;1.02;;
48534;SDS011;34323;52.022;5.686;2023-07-30T13:28:44;5.65;;;1.15;;
48534;SDS011;34323;52.022;5.686;2023-07-30T13:31:09;3.60;;;0.88;;
48534;SDS011;34323;52.022;5.686;2023-07-30T13:33:35;7.47;;;1.33;;
48534;SDS011;34323;52.022;5.686;2023-07-30T13:36:01;13.77;;;1.92;;
48534;SDS011;34323;52.022;5.686;2023-07-30T13:38:27;5.32;;;1.08;;
48534;SDS011;34323;52.022;5.686;2023-07-30T13:40:53;2.75;;;0.77;;
48534;SDS011;34323;52.022;5.686;2023-07-30T13:43:19;6.63;;;2.10;;
48534;SDS011;34323;52.022;5.686;2023-07-30T13:45:45;8.82;;;1.30;;
48534;SDS011;34323;52.022;5.686;2023-07-30T13:48:15;3.75;;;1.05;;
48534;SDS011;34323;52.022;5.686;2023-07-30T13:50:40;5.47;;;1.40;;
48534;SDS011;34323;52.022;5.686;2023-07-30T13:53:06;4.28;;;1.60;;
48534;SDS011;34323;52.022;5.686;2023-07-30T13:55:32;5.57;;;1.75;;
48534;SDS011;34323;52.022;5.686;2023-07-30T13:57:57;5.05;;;1.98;;
48534;SDS011;34323;52.022;5.686;2023-07-30T14:00:23;4.82;;;1.58;;
48534;SDS011;34323;52.022;5.686;2023-07-30T14:02:48;3.17;;;1.38;;
48534;SDS011;34323;52.022;5.686;2023-07-30T14:05:15;4.28;;;1.20;;
48534;SDS011;34323;52.022;5.686;2023-07-30T14:07:42;9.98;;;2.05;;
48534;SDS011;34323;52.022;5.686;2023-07-30T14:10:08;3.05;;;1.33;;
48534;SDS011;34323;52.022;5.686;2023-07-30T14:12:34;5.47;;;1.73;;
48534;SDS011;34323;52.022;5.686;2023-07-30T14:15:00;3.53;;;1.67;;
48534;SDS011;34323;52.022;5.686;2023-07-30T14:17:26;5.57;;;1.83;;
48534;SDS011;34323;52.022;5.686;2023-07-30T14:19:52;6.95;;;1.70;;
48534;SDS011;34323;52.022;5.686;2023-07-30T14:22:18;3.60;;;1.73;;
48534;SDS011;34323;52.022;5.686;2023-07-30T14:24:43;4.72;;;1.88;;
48534;SDS011;34323;52.022;5.686;2023-07-30T14:27:09;3.78;;;1.55;;
48534;SDS011;34323;52.022;5.686;2023-07-30T14:29:35;4.97;;;1.60;;
48534;SDS011;34323;52.022;5.686;2023-07-30T14:32:01;4.28;;;1.55;;
48534;SDS011;34323;52.022;5.686;2023-07-30T14:34:26;4.88;;;2.05;;
48534;SDS011;34323;52.022;5.686;2023-07-30T14:36:52;4.32;;;1.35;;